Ibstock, United Kingdom
Current Conditions -  °F | °C
As of 10:20 PM on Tuesday 21 Oct 2014 (Local Time) from EGNX Reporting Station
Clear Clear  
Wind Chill: 35°   Ceiling: Unl
Heat Index: 43°   Visibility: 6mi
Dew Point: 37°   Wind: 18mph
Humidity: 81%   Direction: 280°W
Pressure: 30.06"   Gusts: NA
Location:  52.69°N, 1.4°W
Report Text: EGNX 212120Z 28016KT CAVOK 06/03 Q1018
Loading
Personal Weather Stations






























Interactive Weather Map New forecast layout! Learn more

10-Day Weather Forecast

Advertisements
Track Severe Weather on mobile